Time;durP1;ratioP1;P1;durP2;ratioP2;P2;SDS_P1;SDS_P2;PMS_P1;PMS_P2;Temp;Humidity;BMP_temperature;BMP_pressure;BME280_temperature;BME280_humidity;BME280_pressure;Samples;Min_cycle;Max_cycle;Signal;HPM_P1;HPM_P2
2022/08/23 00:01:48;;;;;;;9.93;3.38;;;19.60;99.90;;;;;;5060123;28;20031;-86
2022/08/23 00:04:21;;;;;;;9.95;4.10;;;19.60;99.90;;;;;;5059433;28;20029;-76
2022/08/23 00:06:48;;;;;;;8.60;3.35;;;19.40;99.90;;;;;;5059372;28;20180;-88
2022/08/23 00:09:15;;;;;;;6.40;2.85;;;19.40;99.90;;;;;;5018653;28;20548;-80
2022/08/23 00:11:48;;;;;;;4.95;2.30;;;19.50;99.90;;;;;;5030552;28;20475;-80
2022/08/23 00:14:16;;;;;;;;;;;19.90;99.90;;;;;;5029069;28;20025;-76
2022/08/23 00:16:44;;;;;;;6.47;2.95;;;19.70;99.90;;;;;;5021751;28;19944;-85
2022/08/23 00:19:12;;;;;;;6.18;3.25;;;19.40;99.90;;;;;;5022193;28;20013;-83
2022/08/23 00:21:39;;;;;;;7.25;3.33;;;19.50;99.90;;;;;;5040750;28;20029;-82
2022/08/23 00:24:07;;;;;;;8.15;3.85;;;19.40;99.90;;;;;;5039486;28;20638;-81
2022/08/23 00:26:53;;;;;;;6.60;3.45;;;19.50;99.90;;;;;;5038317;28;20104;-81
2022/08/23 00:29:21;;;;;;;7.70;3.13;;;19.40;99.90;;;;;;5059382;28;20017;-75
2022/08/23 00:31:47;;;;;;;7.93;3.60;;;19.40;99.90;;;;;;5040826;28;20075;-78
2022/08/23 00:34:13;;;;;;;7.13;3.45;;;19.50;99.90;;;;;;5051977;28;20017;-81
2022/08/23 00:36:40;;;;;;;10.30;4.00;;;19.30;99.90;;;;;;5021235;28;20017;-86
2022/08/23 00:39:10;;;;;;;8.18;4.13;;;19.30;99.90;;;;;;5022503;28;20024;-74
2022/08/23 00:41:36;;;;;;;9.23;4.35;;;19.40;99.90;;;;;;5039937;28;20028;-81
2022/08/23 00:49:38;;;;;;;7.03;3.35;;;19.60;99.90;;;;;;5059976;28;20082;-81
2022/08/23 00:52:19;;;;;;;7.57;3.95;;;19.40;99.90;;;;;;5059466;28;20021;-80
2022/08/23 00:54:46;;;;;;;6.93;3.40;;;19.70;99.90;;;;;;5058954;28;20017;-79
2022/08/23 00:57:16;;;;;;;9.55;2.80;;;19.90;99.90;;;;;;5040521;28;20064;-79
2022/08/23 00:59:42;;;;;;;8.82;4.13;;;20.00;99.90;;;;;;5041768;28;20017;-85
2022/08/23 01:02:08;;;;;;;7.72;3.35;;;20.10;99.90;;;;;;5059667;28;20029;-81
2022/08/23 01:04:40;;;;;;;8.00;3.65;;;20.00;99.90;;;;;;5060097;28;20048;-81
2022/08/23 01:07:38;;;;;;;8.00;3.70;;;21.80;99.90;;;;;;5042516;28;20023;-84
2022/08/23 01:10:11;;;;;;;6.35;2.90;;;20.40;99.90;;;;;;5059909;28;20009;-82
2022/08/23 01:12:43;;;;;;;9.10;4.40;;;20.60;99.90;;;;;;5060263;28;20019;-80
2022/08/23 01:15:22;;;;;;;9.00;3.55;;;20.60;99.90;;;;;;5059827;28;20035;-77
2022/08/23 01:17:54;;;;;;;8.57;3.72;;;20.70;99.90;;;;;;5055832;28;20043;-76
2022/08/23 01:20:23;;;;;;;9.23;3.90;;;20.80;99.90;;;;;;5073287;28;20013;-78
2022/08/23 01:23:01;;;;;;;9.68;4.43;;;21.30;99.90;;;;;;5075574;28;20047;-81
2022/08/23 01:25:30;;;;;;;8.52;3.42;;;20.50;99.90;;;;;;5073692;28;20426;-79
2022/08/23 01:27:56;;;;;;;9.30;4.47;;;20.00;99.90;;;;;;5059277;28;20037;-78
2022/08/23 01:30:25;;;;;;;8.30;3.72;;;19.90;99.90;;;;;;5058957;28;20057;-76
2022/08/23 01:32:54;;;;;;;8.25;3.38;;;20.40;99.90;;;;;;5055733;28;20027;-90
2022/08/23 01:35:30;;;;;;;8.27;3.63;;;20.00;99.90;;;;;;5033639;28;20036;-79
2022/08/23 01:37:56;;;;;;;8.48;4.00;;;19.60;99.90;;;;;;5050184;28;20124;-87
2022/08/23 01:40:22;;;;;;;10.80;4.20;;;19.50;99.90;;;;;;5049614;28;20049;-76
2022/08/23 01:42:48;;;;;;;8.90;4.15;;;19.30;99.90;;;;;;5042841;28;20025;-78
2022/08/23 01:45:14;;;;;;;10.35;4.50;;;19.10;99.90;;;;;;5042984;28;20107;-94
2022/08/23 01:47:40;;;;;;;9.93;4.20;;;19.00;99.90;;;;;;5026134;28;20033;-92
2022/08/23 01:50:11;;;;;;;7.78;3.45;;;19.00;99.90;;;;;;5045749;28;20024;-78
2022/08/23 01:52:39;;;;;;;11.43;4.07;;;21.60;99.90;;;;;;5047769;28;20219;-81
2022/08/23 01:55:05;;;;;;;10.00;4.40;;;18.90;99.90;;;;;;5045140;28;20025;-76
2022/08/23 01:57:33;;;;;;;8.50;3.92;;;18.70;99.90;;;;;;5062152;28;20581;-84
2022/08/23 02:00:00;;;;;;;9.93;3.45;;;18.60;99.90;;;;;;5043887;28;20029;-81
2022/08/23 02:02:26;;;;;;;8.70;3.55;;;19.00;99.90;;;;;;5062707;28;20064;-76
2022/08/23 02:04:52;;;;;;;8.88;4.38;;;19.30;99.90;;;;;;5062159;28;20023;-87
2022/08/23 02:07:19;;;;;;;8.88;3.70;;;19.20;99.90;;;;;;5062474;28;20635;-82
2022/08/23 02:09:45;;;;;;;8.25;3.58;;;19.20;99.90;;;;;;5061106;28;20028;-82
2022/08/23 02:12:11;;;;;;;7.50;3.22;;;19.50;99.90;;;;;;5042184;28;20020;-83
2022/08/23 02:14:40;;;;;;;7.82;3.72;;;19.60;99.90;;;;;;5042494;28;20249;-80
2022/08/23 02:17:06;;;;;;;11.52;3.78;;;19.80;99.90;;;;;;5024336;28;20120;-76
2022/08/23 02:19:33;;;;;;;8.05;3.17;;;19.70;99.90;;;;;;5041623;28;20154;-92
2022/08/23 02:21:59;;;;;;;10.15;4.80;;;20.40;99.90;;;;;;5042328;28;20040;-88
2022/08/23 02:24:26;;;;;;;8.00;3.72;;;20.10;99.90;;;;;;5041687;28;20570;-85
2022/08/23 02:26:56;;;;;;;6.60;3.35;;;20.20;99.90;;;;;;5058498;28;20060;-76
2022/08/23 02:29:23;;;;;;;9.02;4.40;;;20.70;99.90;;;;;;5061968;28;20040;-79
2022/08/23 02:31:50;;;;;;;11.38;4.20;;;;;;;;;;5062077;28;20017;-86
2022/08/23 02:34:17;;;;;;;10.25;3.95;;;20.10;99.90;;;;;;5036425;28;20532;-83
2022/08/23 02:36:44;;;;;;;8.75;3.97;;;20.00;99.90;;;;;;5045426;28;20036;-76
2022/08/23 02:39:11;;;;;;;7.25;3.58;;;19.90;99.90;;;;;;5042777;28;20017;-76
2022/08/23 02:41:50;;;;;;;10.48;3.80;;;20.30;99.90;;;;;;5041883;28;20013;-76
2022/08/23 02:44:17;;;;;;;10.15;3.55;;;;;;;;;;5041692;28;20656;-82
2022/08/23 02:46:44;;;;;;;7.63;3.53;;;20.50;99.90;;;;;;5041656;28;20213;-77
2022/08/23 02:49:11;;;;;;;11.30;4.75;;;20.60;99.90;;;;;;5042119;28;20025;-87
2022/08/23 02:51:40;;;;;;;9.95;4.90;;;20.50;99.90;;;;;;5022804;28;20029;-84
2022/08/23 02:54:06;;;;;;;6.60;3.65;;;20.50;99.90;;;;;;5023417;28;20028;-88
2022/08/23 02:56:33;;;;;;;12.70;5.28;;;20.30;99.90;;;;;;5041067;28;20028;-78
2022/08/23 02:58:59;;;;;;;17.05;5.78;;;20.20;99.90;;;;;;5039786;28;20045;-80
2022/08/23 03:01:28;;;;;;;8.32;3.65;;;19.80;99.90;;;;;;5040528;28;20108;-86
2022/08/23 03:03:55;;;;;;;8.98;4.10;;;19.30;99.90;;;;;;5040449;28;20059;-75
2022/08/23 03:06:21;;;;;;;8.55;4.00;;;19.00;99.90;;;;;;5040713;28;20023;-90
2022/08/23 03:08:47;;;;;;;10.13;4.35;;;19.10;99.90;;;;;;5024098;28;20025;-78
2022/08/23 03:11:16;;;;;;;8.10;4.07;;;18.40;99.90;;;;;;5041002;28;20078;-79
2022/08/23 03:13:44;;;;;;;9.00;4.28;;;18.10;99.90;;;;;;5040406;28;20680;-81
2022/08/23 03:16:11;;;;;;;11.43;4.60;;;16.60;99.90;;;;;;5040287;28;20057;-85
2022/08/23 03:18:38;;;;;;;10.73;4.90;;;18.10;99.90;;;;;;5056783;28;20060;-81
2022/08/23 03:21:06;;;;;;;9.43;4.40;;;17.70;99.90;;;;;;5059435;28;20506;-84
2022/08/23 03:23:36;;;;;;;10.27;4.47;;;17.70;99.90;;;;;;5042987;28;20716;-86
2022/08/23 03:26:22;;;;;;;9.02;3.75;;;18.00;99.90;;;;;;5052509;28;20057;-89
2022/08/23 03:28:51;;;;;;;9.57;4.13;;;18.10;99.90;;;;;;5041838;28;20071;-83
2022/08/23 03:31:24;;;;;;;11.00;4.35;;;;;;;;;;5021560;28;20528;-83
2022/08/23 03:33:59;;;;;;;10.10;5.20;;;17.80;99.90;;;;;;5040692;28;20009;-85
2022/08/23 03:36:29;;;;;;;9.10;4.13;;;20.80;99.90;;;;;;5022871;28;20047;-77
2022/08/23 03:38:55;;;;;;;9.38;4.25;;;19.10;99.90;;;;;;5026833;28;20035;-76
2022/08/23 03:41:22;;;;;;;8.48;3.85;;;19.50;99.90;;;;;;5046630;28;20017;-82
2022/08/23 03:43:48;;;;;;;10.00;4.03;;;19.80;99.90;;;;;;5062775;28;20028;-83
2022/08/23 03:46:21;;;;;;;11.25;3.85;;;19.10;99.90;;;;;;5064562;28;20651;-77
2022/08/23 03:48:58;;;;;;;11.50;3.78;;;20.00;99.90;;;;;;5063556;28;20069;-91
2022/08/23 03:51:25;;;;;;;9.02;3.60;;;19.90;99.90;;;;;;5061410;28;20016;-74
2022/08/23 03:53:52;;;;;;;11.43;4.22;;;;;;;;;;5044839;28;20112;-81
2022/08/23 03:56:32;;;;;;;7.88;3.05;;;20.00;99.90;;;;;;5043050;28;20597;-83
2022/08/23 03:59:01;;;;;;;9.23;3.15;;;20.60;99.90;;;;;;5060693;28;20030;-89
2022/08/23 04:01:29;;;;;;;9.90;4.00;;;20.20;99.90;;;;;;5060487;28;20016;-76
2022/08/23 04:03:58;;;;;;;10.93;4.47;;;;;;;;;;5041535;28;20048;-89
2022/08/23 04:06:28;;;;;;;8.70;3.80;;;20.10;99.90;;;;;;5042129;28;20639;-88
2022/08/23 04:08:55;;;;;;;9.85;3.58;;;20.00;99.90;;;;;;5042655;28;20024;-84
2022/08/23 04:11:24;;;;;;;10.57;3.58;;;17.30;99.90;;;;;;5029437;28;20052;-79
2022/08/23 04:14:00;;;;;;;9.43;3.47;;;20.10;99.90;;;;;;5022439;28;20226;-80
2022/08/23 04:16:27;;;;;;;10.48;3.88;;;20.40;99.90;;;;;;5056614;28;20074;-77
2022/08/23 04:18:56;;;;;;;8.68;3.55;;;20.10;99.90;;;;;;5042534;28;20088;-88
2022/08/23 04:21:22;;;;;;;9.55;3.67;;;20.00;99.90;;;;;;5041679;28;20136;-87
2022/08/23 04:23:48;;;;;;;9.05;3.55;;;;;;;;;;5058615;28;20032;-75
2022/08/23 04:26:14;;;;;;;9.15;3.72;;;;;;;;;;5058524;28;20024;-83
2022/08/23 04:28:41;;;;;;;8.75;3.58;;;;;;;;;;5058663;28;20091;-76
2022/08/23 04:31:06;;;;;;;7.85;3.78;;;18.00;99.90;;;;;;5044180;28;20048;-77
2022/08/23 04:33:35;;;;;;;10.48;3.90;;;20.00;99.90;;;;;;5063348;28;20047;-79
2022/08/23 04:36:02;;;;;;;10.40;4.82;;;19.70;99.90;;;;;;5044269;28;20192;-74
2022/08/23 04:38:29;;;;;;;7.43;3.30;;;19.30;99.90;;;;;;5059441;28;20570;-79
2022/08/23 04:43:42;;;;;;;10.60;4.15;;;19.00;99.90;;;;;;5038953;28;20112;-79
2022/08/23 04:46:09;;;;;;;10.25;4.30;;;19.00;99.90;;;;;;5039241;28;20678;-76
2022/08/23 04:48:35;;;;;;;12.88;4.95;;;18.20;99.90;;;;;;5044047;28;20021;-77
2022/08/23 04:51:00;;;;;;;10.95;4.95;;;17.80;99.90;;;;;;5063511;28;20052;-72
2022/08/23 04:53:29;;;;;;;13.20;4.93;;;17.70;99.90;;;;;;5063386;28;20023;-81
2022/08/23 04:55:55;;;;;;;10.00;4.13;;;17.70;99.90;;;;;;5055176;28;20806;-76
2022/08/23 04:58:21;;;;;;;9.07;4.72;;;17.50;99.90;;;;;;5025879;28;20648;-81
2022/08/23 05:00:52;;;;;;;11.15;4.65;;;17.50;99.90;;;;;;5043698;28;20040;-83
2022/08/23 05:03:18;;;;;;;10.95;4.57;;;17.40;99.90;;;;;;5043256;28;20039;-76
2022/08/23 05:05:44;;;;;;;15.13;4.55;;;17.50;99.90;;;;;;5024891;28;20016;-85
2022/08/23 05:08:10;;;;;;;12.90;5.22;;;17.20;99.90;;;;;;5025494;28;20037;-74
2022/08/23 05:10:35;;;;;;;13.57;4.55;;;17.20;99.90;;;;;;5024972;28;20029;-75
2022/08/23 05:13:01;;;;;;;9.15;3.88;;;17.10;99.90;;;;;;5042640;28;20021;-82
2022/08/23 05:15:27;;;;;;;10.02;3.97;;;17.10;99.90;;;;;;5042762;28;20025;-80
2022/08/23 05:17:53;;;;;;;11.55;4.45;;;17.10;99.90;;;;;;5026267;28;20033;-84
2022/08/23 05:20:19;;;;;;;11.48;4.25;;;17.10;99.90;;;;;;5057303;28;20036;-84
2022/08/23 05:22:45;;;;;;;9.63;3.85;;;17.00;99.90;;;;;;5054600;28;20101;-80
2022/08/23 05:25:11;;;;;;;10.52;5.07;;;17.00;99.90;;;;;;5059246;28;20746;-84
2022/08/23 05:27:37;;;;;;;13.40;6.20;;;17.00;99.90;;;;;;5042526;28;20289;-77
2022/08/23 05:30:05;;;;;;;9.50;4.30;;;17.00;99.90;;;;;;5025094;28;20017;-81
2022/08/23 05:32:31;;;;;;;8.68;3.72;;;16.90;99.90;;;;;;5044837;28;20029;-80
2022/08/23 05:34:57;;;;;;;11.38;4.65;;;16.90;99.90;;;;;;5041854;28;20628;-77
2022/08/23 05:37:22;;;;;;;8.85;3.33;;;16.90;99.90;;;;;;5041355;28;20028;-78
2022/08/23 05:39:48;;;;;;;16.10;4.30;;;17.30;99.90;;;;;;5043061;28;20033;-83
2022/08/23 05:42:18;;;;;;;9.27;3.42;;;18.10;99.90;;;;;;5026130;28;20055;-77
2022/08/23 05:44:44;;;;;;;11.35;4.07;;;18.70;99.90;;;;;;5041699;28;20675;-81
2022/08/23 05:47:13;;;;;;;10.77;4.22;;;18.80;99.90;;;;;;5023348;28;20098;-81
2022/08/23 05:49:39;;;;;;;11.60;3.92;;;19.10;99.90;;;;;;5041666;28;20021;-76
2022/08/23 05:52:10;;;;;;;21.13;4.05;;;19.40;99.90;;;;;;5041262;28;20025;-73
2022/08/23 05:54:37;;;;;;;13.48;4.00;;;19.90;99.90;;;;;;5023581;28;20527;-78
2022/08/23 05:57:03;;;;;;;9.65;4.28;;;19.50;99.90;;;;;;5041105;28;20111;-83
2022/08/23 05:59:29;;;;;;;9.35;3.67;;;;;;;;;;5041522;28;20531;-79
2022/08/23 06:01:56;;;;;;;10.07;4.60;;;19.50;99.90;;;;;;5040424;28;20040;-79
2022/08/23 06:04:22;;;;;;;9.05;2.50;;;19.80;99.90;;;;;;5041413;28;20465;-74
2022/08/23 06:06:48;;;;;;;8.38;3.63;;;19.50;99.90;;;;;;5041802;28;20047;-83
2022/08/23 06:09:16;;;;;;;8.43;3.25;;;19.80;99.90;;;;;;5041520;28;20667;-83
2022/08/23 06:11:44;;;;;;;6.82;3.30;;;19.80;99.90;;;;;;5024449;28;20272;-86
2022/08/23 06:14:11;;;;;;;7.47;3.38;;;19.90;99.90;;;;;;5042406;28;20021;-82
2022/08/23 06:16:42;;;;;;;8.48;3.00;;;20.00;99.90;;;;;;5040974;28;20017;-83
2022/08/23 06:19:09;;;;;;;8.40;3.47;;;20.00;99.90;;;;;;5041998;28;20013;-85
2022/08/23 06:21:35;;;;;;;9.20;3.58;;;19.70;99.90;;;;;;5040612;28;20025;-75
2022/08/23 06:24:02;;;;;;;14.88;3.40;;;19.70;99.90;;;;;;5023060;28;20024;-82
2022/08/23 06:26:30;;;;;;;8.30;3.15;;;19.80;99.90;;;;;;5043664;28;20601;-78
2022/08/23 06:28:58;;;;;;;7.93;2.97;;;19.80;99.90;;;;;;5040816;28;20090;-77
2022/08/23 06:31:44;;;;;;;8.07;3.80;;;20.00;99.90;;;;;;5040800;28;20017;-83
2022/08/23 06:34:14;;;;;;;8.60;3.22;;;20.10;99.90;;;;;;5023044;28;20025;-77
2022/08/23 06:36:41;;;;;;;8.13;4.15;;;20.20;99.90;;;;;;5040808;28;20027;-74
2022/08/23 06:39:09;;;;;;;7.38;2.70;;;20.10;99.90;;;;;;5040461;28;20698;-74
2022/08/23 06:41:36;;;;;;;7.90;3.97;;;20.10;99.90;;;;;;5024774;28;20028;-84
2022/08/23 06:44:06;;;;;;;10.00;3.35;;;20.40;99.90;;;;;;5040299;28;20028;-74
2022/08/23 06:46:33;;;;;;;8.45;3.22;;;20.60;99.90;;;;;;5023009;28;20029;-79
2022/08/23 06:49:03;;;;;;;9.10;3.53;;;20.30;99.90;;;;;;5040507;28;20680;-80
2022/08/23 06:51:33;;;;;;;9.15;3.78;;;21.10;99.90;;;;;;5052908;28;20443;-80
2022/08/23 06:54:01;;;;;;;8.48;2.88;;;19.70;99.90;;;;;;5061042;28;20021;-78
2022/08/23 06:56:28;;;;;;;7.88;3.55;;;19.90;99.90;;;;;;5060233;28;20031;-80
2022/08/23 06:58:54;;;;;;;7.82;2.97;;;20.20;99.90;;;;;;5061681;28;20028;-85
2022/08/23 07:01:34;;;;;;;9.02;3.42;;;20.40;99.90;;;;;;5031769;28;20572;-82
2022/08/23 07:04:01;;;;;;;9.13;3.00;;;20.50;99.90;;;;;;5041835;28;20120;-80
2022/08/23 07:06:28;;;;;;;7.47;3.47;;;20.40;99.90;;;;;;5024058;28;20017;-81
2022/08/23 07:08:54;;;;;;;11.88;3.65;;;21.10;99.90;;;;;;5041132;28;20009;-80
2022/08/23 07:11:21;;;;;;;10.00;3.00;;;20.70;99.90;;;;;;5022727;28;20082;-79
2022/08/23 07:13:47;;;;;;;8.55;3.45;;;20.70;99.90;;;;;;5043686;28;20103;-88
2022/08/23 07:16:16;;;;;;;8.88;3.55;;;20.80;99.90;;;;;;5045278;28;20025;-77
2022/08/23 07:18:44;;;;;;;8.98;3.47;;;20.90;99.90;;;;;;5023344;28;20191;-81
2022/08/23 07:21:11;;;;;;;7.57;2.70;;;20.90;99.90;;;;;;5040058;28;20021;-78
2022/08/23 07:23:38;;;;;;;9.43;3.17;;;20.90;99.90;;;;;;5039639;28;20037;-79
2022/08/23 07:26:10;;;;;;;10.35;4.72;;;21.50;99.90;;;;;;5040956;28;20036;-76
2022/08/23 07:28:37;;;;;;;7.45;2.75;;;20.80;99.90;;;;;;5040216;28;20304;-76
2022/08/23 07:31:10;;;;;;;8.10;3.10;;;20.80;99.90;;;;;;5039824;28;20564;-75
2022/08/23 07:33:37;;;;;;;6.75;2.60;;;20.80;99.90;;;;;;5039780;28;20025;-78
2022/08/23 07:36:04;;;;;;;11.68;4.05;;;20.80;99.90;;;;;;5039372;28;20120;-77
2022/08/23 07:38:31;;;;;;;7.55;3.45;;;20.80;99.90;;;;;;5039657;28;20031;-81
2022/08/23 07:40:57;;;;;;;9.98;3.95;;;20.40;99.90;;;;;;5048752;28;20089;-81
2022/08/23 07:43:23;;;;;;;8.93;4.07;;;20.30;99.90;;;;;;5043374;28;20094;-87
2022/08/23 07:45:49;;;;;;;8.40;3.47;;;20.40;99.90;;;;;;5042203;28;20096;-76
2022/08/23 07:48:15;;;;;;;8.38;4.03;;;20.30;99.90;;;;;;5057437;28;20049;-81
2022/08/23 07:50:41;;;;;;;12.88;4.32;;;20.40;99.90;;;;;;5021498;28;20021;-86
2022/08/23 07:53:07;;;;;;;8.32;3.50;;;20.40;99.90;;;;;;5039500;28;20660;-78
2022/08/23 07:55:34;;;;;;;6.10;2.95;;;20.50;99.90;;;;;;5045744;28;20517;-81
2022/08/23 07:58:00;;;;;;;8.50;3.58;;;;;;;;;;5042294;28;20732;-80
2022/08/23 08:00:27;;;;;;;8.25;3.42;;;;;;;;;;5060441;28;20027;-81
2022/08/23 08:02:53;;;;;;;8.15;3.88;;;21.00;99.90;;;;;;5059387;28;20067;-83
2022/08/23 08:05:19;;;;;;;10.07;3.80;;;21.10;99.90;;;;;;5041523;28;20045;-81
2022/08/23 08:07:45;;;;;;;9.00;4.35;;;21.30;99.90;;;;;;5059323;28;20125;-81
2022/08/23 08:10:11;;;;;;;8.20;3.30;;;21.30;99.90;;;;;;5036720;28;20040;-81
2022/08/23 08:12:37;;;;;;;7.53;3.53;;;21.50;99.90;;;;;;5040037;28;20025;-82
2022/08/23 08:15:03;;;;;;;7.63;3.45;;;21.40;99.90;;;;;;5022043;28;20543;-85
2022/08/23 08:17:29;;;;;;;8.55;4.22;;;22.00;99.90;;;;;;5046777;28;20660;-83
2022/08/23 08:19:55;;;;;;;11.85;5.15;;;21.30;99.90;;;;;;5025406;28;20033;-78
2022/08/23 08:22:21;;;;;;;9.50;4.60;;;21.20;99.90;;;;;;5039385;28;20036;-77
2022/08/23 08:24:47;;;;;;;8.65;4.60;;;21.00;99.90;;;;;;5042901;28;20024;-84
2022/08/23 08:27:13;;;;;;;9.30;4.22;;;19.40;99.90;;;;;;5059766;28;20044;-78
2022/08/23 08:29:41;;;;;;;11.02;4.47;;;21.00;99.90;;;;;;5059605;28;20031;-87
2022/08/23 08:32:07;;;;;;;8.60;3.80;;;21.50;99.90;;;;;;5059460;28;20106;-77
2022/08/23 08:34:33;;;;;;;10.30;4.82;;;21.00;99.90;;;;;;5059752;28;20151;-79
2022/08/23 08:36:59;;;;;;;8.82;4.38;;;21.20;99.90;;;;;;5044655;28;20048;-83
2022/08/23 08:39:28;;;;;;;10.93;5.30;;;24.80;99.90;;;;;;5041257;28;20053;-81
2022/08/23 08:42:00;;;;;;;8.57;5.07;;;21.40;99.90;;;;;;5059900;28;20109;-77
2022/08/23 08:44:46;;;;;;;9.88;4.82;;;20.90;99.90;;;;;;5059492;28;20028;-78
2022/08/23 08:47:27;;;;;;;13.07;4.55;;;21.10;99.90;;;;;;5059499;28;20013;-79
2022/08/23 08:49:59;;;;;;;10.18;5.38;;;21.00;99.90;;;;;;5043473;28;20017;-76
2022/08/23 08:52:28;;;;;;;10.63;4.18;;;21.00;99.90;;;;;;5022654;28;20412;-81
2022/08/23 08:55:03;;;;;;;11.38;5.07;;;21.10;99.90;;;;;;5039274;28;20024;-85
2022/08/23 08:57:36;;;;;;;10.30;4.75;;;21.20;99.90;;;;;;5052490;28;20024;-78
2022/08/23 09:00:13;;;;;;;9.95;5.20;;;21.10;99.90;;;;;;5060602;28;20029;-88
2022/08/23 09:02:43;;;;;;;12.73;6.35;;;21.30;99.90;;;;;;5043096;28;20040;-80
2022/08/23 09:05:43;;;;;;;8.75;4.13;;;21.20;99.90;;;;;;5042639;28;20025;-77
2022/08/23 09:08:49;;;;;;;9.85;4.97;;;18.90;99.90;;;;;;4962604;28;20114;-79
2022/08/23 09:11:24;;;;;;;15.63;8.30;;;21.40;99.90;;;;;;4938940;28;20647;-83
2022/08/23 09:14:03;;;;;;;14.63;6.80;;;21.20;99.90;;;;;;4938706;29;20115;-78
2022/08/23 09:16:52;;;;;;;14.55;6.93;;;20.10;99.90;;;;;;4919198;29;20035;-82
2022/08/23 09:19:21;;;;;;;15.88;7.18;;;20.70;99.90;;;;;;4939699;28;20031;-82
2022/08/23 09:21:59;;;;;;;13.00;6.63;;;20.50;99.90;;;;;;4924005;29;20031;-79
2022/08/23 09:24:25;;;;;;;15.18;8.02;;;19.40;99.90;;;;;;4943826;28;20373;-75
2022/08/23 09:26:55;;;;;;;12.57;7.03;;;20.10;99.90;;;;;;4925894;29;20537;-78
2022/08/23 09:29:25;;;;;;;16.02;7.25;;;20.10;99.90;;;;;;4921143;29;20608;-82
2022/08/23 09:31:54;;;;;;;15.00;7.80;;;17.50;99.90;;;;;;4938318;29;20031;-79
2022/08/23 09:34:20;;;;;;;14.57;7.30;;;20.00;99.90;;;;;;4924889;29;20081;-86
2022/08/23 09:36:46;;;;;;;12.85;6.85;;;19.80;99.90;;;;;;4921200;29;20035;-76
2022/08/23 09:39:29;;;;;;;16.80;7.90;;;19.70;99.90;;;;;;4942159;28;20078;-82
2022/08/23 09:41:56;;;;;;;16.85;8.23;;;19.90;99.90;;;;;;4941935;28;20028;-84
2022/08/23 09:44:42;;;;;;;16.65;8.50;;;19.70;99.90;;;;;;4954787;28;20054;-76
2022/08/23 09:47:16;;;;;;;21.27;9.85;;;19.90;99.90;;;;;;5011209;28;20583;-87
2022/08/23 09:49:51;;;;;;;15.98;8.68;;;19.50;99.90;;;;;;5052090;28;20056;-77
2022/08/23 09:52:33;;;;;;;18.08;9.23;;;19.90;99.90;;;;;;5050415;28;20029;-81
2022/08/23 09:55:05;;;;;;;14.07;7.63;;;19.90;99.90;;;;;;5073911;28;20048;-82
2022/08/23 09:57:32;;;;;;;13.57;7.55;;;19.80;99.90;;;;;;5076485;28;20024;-78
2022/08/23 10:00:18;;;;;;;20.02;9.18;;;19.80;99.90;;;;;;5070658;28;20361;-80
2022/08/23 10:02:44;;;;;;;15.65;7.95;;;19.80;99.90;;;;;;5047629;28;20045;-80
2022/08/23 10:05:28;;;;;;;19.23;8.38;;;19.80;99.90;;;;;;5057569;28;20017;-85
2022/08/23 10:10:45;;;;;;;17.38;7.43;;;19.80;99.90;;;;;;5105214;22;20056;-84
2022/08/23 10:13:12;;;;;;;16.35;7.78;;;19.80;99.90;;;;;;5082987;28;20699;-81
2022/08/23 10:15:51;;;;;;;28.13;8.25;;;19.90;99.90;;;;;;5107662;28;20039;-77
2022/08/23 10:18:30;;;;;;;20.23;7.05;;;20.50;99.90;;;;;;5103875;28;20073;-81
2022/08/23 10:21:27;;;;;;;19.38;9.85;;;21.10;99.90;;;;;;5103736;28;20024;-84
2022/08/23 10:24:21;;;;;;;18.42;7.57;;;21.50;99.90;;;;;;5104604;28;20036;-76
2022/08/23 10:30:15;;;;;;;17.02;5.47;;;22.20;99.90;;;;;;5106324;28;20031;-74
2022/08/23 10:33:06;;;;;;;11.75;5.75;;;22.50;99.90;;;;;;5082288;28;20062;-76
2022/08/23 10:35:59;;;;;;;12.73;6.60;;;22.70;99.90;;;;;;5103009;28;20016;-75
2022/08/23 10:39:03;;;;;;;12.93;5.13;;;22.40;99.90;;;;;;5103590;28;20051;-85
2022/08/23 10:41:45;;;;;;;13.90;6.55;;;22.30;99.90;;;;;;5103181;28;20099;-75
2022/08/23 10:44:26;;;;;;;14.65;5.55;;;21.90;99.90;;;;;;5088752;28;20032;-89
2022/08/23 10:47:30;;;;;;;11.80;6.47;;;21.80;99.90;;;;;;5087215;28;20081;-76
2022/08/23 10:50:02;;;;;;;17.13;5.50;;;22.20;99.90;;;;;;5091575;28;20093;-76
2022/08/23 10:52:44;;;;;;;14.75;6.55;;;22.20;99.90;;;;;;5096363;28;20016;-76
2022/08/23 10:55:35;;;;;;;15.07;6.82;;;21.50;99.90;;;;;;5099899;28;20023;-82
2022/08/23 10:58:06;;;;;;;15.93;7.57;;;22.20;99.90;;;;;;5103843;28;20707;-75
2022/08/23 11:00:36;;;;;;;15.05;6.28;;;22.40;99.90;;;;;;5100464;28;20645;-72
2022/08/23 11:03:33;;;;;;;15.85;7.68;;;22.30;99.90;;;;;;5100597;28;20039;-74
2022/08/23 11:06:30;;;;;;;14.57;7.10;;;21.70;99.90;;;;;;5072576;28;20699;-82
2022/08/23 11:09:17;;;;;;;12.60;6.75;;;22.60;99.90;;;;;;5066906;28;20059;-72
2022/08/23 11:11:48;;;;;;;16.35;6.03;;;22.30;99.90;;;;;;5057248;28;20031;-77
2022/08/23 11:14:44;;;;;;;13.80;6.45;;;22.40;99.90;;;;;;5066716;28;20096;-81
2022/08/23 11:17:25;;;;;;;12.55;5.90;;;22.40;99.90;;;;;;5057259;28;20039;-73
2022/08/23 11:20:02;;;;;;;12.98;6.65;;;22.30;99.90;;;;;;5073197;28;20043;-91
2022/08/23 11:22:30;;;;;;;13.60;6.32;;;22.40;99.90;;;;;;5079745;28;20012;-76
2022/08/23 11:25:22;;;;;;;13.15;5.72;;;22.70;99.90;;;;;;5080414;28;20025;-83
2022/08/23 11:27:48;;;;;;;15.00;6.53;;;22.40;99.90;;;;;;5078657;28;20095;-75
2022/08/23 11:30:56;;;;;;;11.95;5.53;;;22.20;99.90;;;;;;5076699;28;20055;-79
2022/08/23 11:33:43;;;;;;;13.43;6.57;;;22.30;99.90;;;;;;5022851;28;20084;-77
2022/08/23 11:36:08;;;;;;;15.50;5.93;;;22.20;99.90;;;;;;5027787;28;20030;-75
2022/08/23 11:38:46;;;;;;;14.45;6.60;;;22.10;99.90;;;;;;5025461;28;20033;-84
2022/08/23 11:41:18;;;;;;;13.40;7.50;;;22.20;99.90;;;;;;5009115;28;20040;-79
2022/08/23 11:44:05;;;;;;;12.93;7.05;;;22.20;99.90;;;;;;5024206;28;20708;-86
2022/08/23 11:46:34;;;;;;;13.95;6.78;;;21.80;99.90;;;;;;5007697;28;20025;-78
2022/08/23 11:49:19;;;;;;;17.98;8.02;;;21.80;99.90;;;;;;5023298;28;20037;-74
2022/08/23 11:52:16;;;;;;;13.68;6.68;;;21.90;99.90;;;;;;5004078;28;20091;-75
2022/08/23 11:55:04;;;;;;;12.32;5.32;;;22.00;99.90;;;;;;5004174;28;20823;-77
2022/08/23 11:57:35;;;;;;;15.88;7.13;;;22.00;99.90;;;;;;5020638;28;20029;-86
2022/08/23 12:00:22;;;;;;;13.20;6.20;;;21.70;99.90;;;;;;5019290;28;20107;-88
2022/08/23 12:03:00;;;;;;;18.75;6.80;;;21.40;99.90;;;;;;5017670;28;20051;-83
2022/08/23 12:05:41;;;;;;;14.43;6.55;;;21.10;99.90;;;;;;5019307;28;20092;-81
2022/08/23 12:08:07;;;;;;;17.17;8.30;;;21.30;99.90;;;;;;5071965;28;20055;-83
2022/08/23 12:10:42;;;;;;;13.98;7.50;;;18.30;99.90;;;;;;5064102;28;20032;-80
2022/08/23 12:13:21;;;;;;;13.10;6.60;;;20.50;99.90;;;;;;5077709;28;20028;-73
2022/08/23 12:16:27;;;;;;;14.60;6.05;;;21.10;99.90;;;;;;5076032;28;20016;-77
2022/08/23 12:18:56;;;;;;;13.27;6.18;;;21.20;99.90;;;;;;5078211;28;20016;-74
2022/08/23 12:21:42;;;;;;;14.13;5.70;;;21.30;99.90;;;;;;5051538;28;20012;-85
2022/08/23 12:24:32;;;;;;;14.50;5.93;;;21.50;99.90;;;;;;5061777;28;20116;-79
2022/08/23 12:27:16;;;;;;;12.93;5.50;;;21.90;99.90;;;;;;5070405;28;20092;-73
2022/08/23 12:29:54;;;;;;;14.00;6.13;;;22.20;99.90;;;;;;5070326;28;20028;-73
2022/08/23 12:32:47;;;;;;;18.88;6.68;;;22.50;99.90;;;;;;5066149;28;20028;-82
2022/08/23 12:36:07;;;;;;;20.35;6.75;;;22.60;99.90;;;;;;5064536;28;20061;-70
2022/08/23 12:38:57;;;;;;;13.43;6.05;;;22.90;99.90;;;;;;4973986;28;20030;-76
2022/08/23 12:41:27;;;;;;;13.95;6.00;;;22.70;99.90;;;;;;4973446;28;20058;-73
2022/08/23 12:44:04;;;;;;;14.65;6.32;;;20.00;99.90;;;;;;4973905;28;20076;-72
2022/08/23 12:46:43;;;;;;;14.48;7.35;;;23.10;99.90;;;;;;4974577;28;20109;-72
2022/08/23 12:49:33;;;;;;;15.50;7.20;;;22.50;99.90;;;;;;4973085;28;20038;-77
2022/08/23 12:52:04;;;;;;;15.40;6.80;;;22.30;99.90;;;;;;4976393;28;20018;-85
2022/08/23 12:54:57;;;;;;;14.10;6.68;;;22.20;99.90;;;;;;4975138;28;20117;-75
2022/08/23 12:57:41;;;;;;;14.10;6.00;;;22.00;99.90;;;;;;4955412;28;20035;-74
2022/08/23 13:00:13;;;;;;;19.67;6.53;;;22.00;99.90;;;;;;4956816;28;20058;-76
2022/08/23 13:03:00;;;;;;;17.17;7.03;;;22.10;99.90;;;;;;4940326;28;20436;-76
2022/08/23 13:05:53;;;;;;;13.70;6.53;;;22.20;99.90;;;;;;4936302;28;20122;-72
2022/08/23 13:08:27;;;;;;;11.50;6.10;;;21.90;99.90;;;;;;4928122;29;20032;-74
2022/08/23 13:10:57;;;;;;;15.43;6.85;;;21.40;99.90;;;;;;4928600;28;20545;-74
2022/08/23 13:17:26;;;;;;;10.27;4.97;;;23.10;99.90;;;;;;4957651;28;20031;-74
2022/08/23 13:20:09;;;;;;;12.57;5.97;;;22.20;99.90;;;;;;4958644;28;20039;-74
2022/08/23 13:22:37;;;;;;;12.80;5.95;;;22.40;99.90;;;;;;4941540;28;20109;-77
2022/08/23 13:25:03;;;;;;;12.52;5.85;;;22.40;99.90;;;;;;4960079;28;20074;-75
2022/08/23 13:28:03;;;;;;;14.00;5.90;;;22.40;99.90;;;;;;4944140;28;20057;-79
2022/08/23 13:30:35;;;;;;;14.73;5.93;;;22.40;99.90;;;;;;4944279;28;20543;-74